Time;durP1;ratioP1;P1;durP2;ratioP2;P2;SDS_P1;SDS_P2;PMS_P1;PMS_P2;Temp;Humidity;BMP_temperature;BMP_pressure;BME280_temperature;BME280_humidity;BME280_pressure;Samples;Min_cycle;Max_cycle;Signal;HPM_P1;HPM_P2
2021/09/07 00:00:42;;;;;;;8.33;7.53;;;;;;;;;;5079715;28;21768;-64
2021/09/07 00:03:08;;;;;;;7.83;7.13;;;;;;;;;;5073526;28;20241;-65
2021/09/07 00:05:34;;;;;;;8.33;7.53;;;;;;;;;;5078671;28;20177;-65
2021/09/07 00:08:00;;;;;;;8.70;7.80;;;;;;;;;;5070782;28;20184;-66
2021/09/07 00:10:26;;;;;;;8.53;7.70;;;;;;;;;;5076464;28;20233;-64
2021/09/07 00:12:52;;;;;;;7.53;6.83;;;;;;;;;;5071102;28;20193;-65
2021/09/07 00:15:19;;;;;;;9.50;6.90;;;;;;;;;;5077035;28;20189;-65
2021/09/07 00:17:45;;;;;;;8.23;7.40;;;;;;;;;;5069229;28;20175;-68
2021/09/07 00:20:11;;;;;;;8.60;7.70;;;;;;;;;;5070974;28;20174;-65
2021/09/07 00:22:38;;;;;;;10.57;7.27;;;;;;;;;;5070240;28;20675;-65
2021/09/07 00:25:05;;;;;;;8.57;6.80;;;;;;;;;;5076298;28;20184;-65
2021/09/07 00:27:31;;;;;;;7.63;6.93;;;;;;;;;;5068480;28;20582;-65
2021/09/07 00:29:57;;;;;;;7.77;6.87;;;;;;;;;;5075106;28;20174;-66
2021/09/07 00:32:23;;;;;;;8.40;7.60;;;;;;;;;;5085580;28;20190;-67
2021/09/07 00:34:49;;;;;;;7.83;7.13;;;;;;;;;;5078335;28;20178;-65
2021/09/07 00:37:15;;;;;;;8.73;7.93;;;;;;;;;;5073246;28;20183;-67
2021/09/07 00:39:41;;;;;;;7.87;7.10;;;;;;;;;;5081562;28;20275;-65
2021/09/07 00:42:07;;;;;;;8.60;7.80;;;;;;;;;;5076250;28;20284;-65
2021/09/07 00:44:33;;;;;;;8.43;7.63;;;;;;;;;;5073445;28;20274;-66
2021/09/07 00:47:07;;;;;;;8.60;7.37;;;;;;;;;;5077206;28;20172;-66
2021/09/07 00:49:33;;;;;;;9.10;8.17;;;;;;;;;;5071928;28;20176;-65
2021/09/07 00:52:00;;;;;;;7.83;7.13;;;;;;;;;;5078303;28;20605;-65
2021/09/07 00:54:28;;;;;;;9.67;7.80;;;;;;;;;;5072473;28;20199;-65
2021/09/07 00:56:54;;;;;;;8.20;7.40;;;;;;;;;;5076888;28;20183;-66
2021/09/07 00:59:21;;;;;;;8.77;7.87;;;;;;;;;;5073261;28;20271;-65
2021/09/07 01:01:48;;;;;;;8.90;8.00;;;;;;;;;;5078645;28;20534;-65
2021/09/07 01:04:14;;;;;;;7.97;7.17;;;;;;;;;;5069933;28;20179;-66
2021/09/07 01:06:40;;;;;;;7.67;6.97;;;;;;;;;;5075353;28;20186;-65
2021/09/07 01:09:07;;;;;;;7.80;7.07;;;;;;;;;;5074240;28;20185;-65
2021/09/07 01:11:33;;;;;;;7.70;7.00;;;;;;;;;;5069855;28;20210;-65
2021/09/07 01:13:59;;;;;;;8.60;7.87;;;;;;;;;;5078123;28;20189;-65
2021/09/07 01:16:25;;;;;;;8.50;7.60;;;;;;;;;;5072691;28;20176;-65
2021/09/07 01:18:52;;;;;;;7.73;6.83;;;;;;;;;;5073773;28;20181;-65
2021/09/07 01:21:18;;;;;;;8.73;7.83;;;;;;;;;;5078792;28;20211;-65
2021/09/07 01:23:46;;;;;;;8.67;7.87;;;;;;;;;;5070549;28;20571;-65
2021/09/07 01:26:16;;;;;;;7.30;6.63;;;;;;;;;;5076791;28;20184;-66
2021/09/07 01:28:43;;;;;;;8.70;7.83;;;;;;;;;;5071392;28;20642;-65
2021/09/07 01:31:10;;;;;;;8.10;7.37;;;;;;;;;;5072030;28;20183;-65
2021/09/07 01:33:54;;;;;;;8.23;7.53;;;;;;;;;;5067773;28;20536;-67
2021/09/07 01:36:22;;;;;;;7.93;6.97;;;;;;;;;;5075560;28;20229;-66
2021/09/07 01:38:48;;;;;;;7.60;6.80;;;;;;;;;;5071981;28;20519;-65
2021/09/07 01:41:14;;;;;;;8.27;7.53;;;;;;;;;;5070950;28;20322;-65
2021/09/07 01:43:40;;;;;;;8.80;7.83;;;;;;;;;;5073047;28;20267;-65
2021/09/07 01:46:06;;;;;;;8.47;7.50;;;;;;;;;;5076929;28;20234;-65
2021/09/07 01:48:32;;;;;;;9.27;6.67;;;;;;;;;;5075571;28;20234;-64
2021/09/07 01:50:58;;;;;;;7.67;6.90;;;;;;;;;;5075613;28;20192;-65
2021/09/07 01:53:24;;;;;;;8.97;8.07;;;;;;;;;;5069553;28;20192;-67
2021/09/07 01:55:50;;;;;;;8.50;7.77;;;;;;;;;;5071313;28;20208;-66
2021/09/07 01:58:16;;;;;;;9.50;8.60;;;;;;;;;;5067617;28;20227;-65
2021/09/07 02:00:42;;;;;;;8.20;7.40;;;;;;;;;;5074853;28;20192;-65
2021/09/07 02:03:09;;;;;;;11.13;10.23;;;;;;;;;;5072055;28;20184;-65
2021/09/07 02:05:35;;;;;;;8.70;7.80;;;;;;;;;;5077854;28;20180;-66
2021/09/07 02:08:01;;;;;;;7.57;6.87;;;;;;;;;;5067302;28;20196;-65
2021/09/07 02:10:27;;;;;;;8.37;7.57;;;;;;;;;;5079617;28;20193;-65
2021/09/07 02:12:53;;;;;;;8.17;7.27;;;;;;;;;;5079185;28;20602;-65
2021/09/07 02:15:19;;;;;;;8.43;6.70;;;;;;;;;;5084135;28;20258;-65
2021/09/07 02:17:45;;;;;;;9.60;7.53;;;;;;;;;;5072943;28;20183;-65
2021/09/07 02:20:16;;;;;;;7.73;7.03;;;;;;;;;;5076248;28;20266;-66
2021/09/07 02:22:42;;;;;;;7.60;6.80;;;;;;;;;;5068132;28;20677;-65
2021/09/07 02:25:08;;;;;;;8.10;7.20;;;;;;;;;;5071100;28;20839;-65
2021/09/07 02:27:38;;;;;;;9.27;8.30;;;;;;;;;;5072485;28;20619;-65
2021/09/07 02:30:05;;;;;;;8.70;7.80;;;;;;;;;;5076873;28;20342;-65
2021/09/07 02:32:34;;;;;;;7.93;7.20;;;;;;;;;;5078297;28;20185;-65
2021/09/07 02:35:00;;;;;;;7.90;7.10;;;;;;;;;;5070584;28;20188;-67
2021/09/07 02:37:26;;;;;;;8.13;7.33;;;;;;;;;;5068875;28;20686;-66
2021/09/07 02:39:52;;;;;;;7.27;6.53;;;;;;;;;;5073097;28;20625;-65
2021/09/07 02:42:18;;;;;;;8.20;7.40;;;;;;;;;;5075068;28;20423;-65
2021/09/07 02:44:44;;;;;;;8.47;7.37;;;;;;;;;;5084156;28;20551;-65
2021/09/07 02:47:10;;;;;;;7.07;6.47;;;;;;;;;;5071702;28;20257;-65
2021/09/07 02:49:36;;;;;;;7.90;6.80;;;;;;;;;;5078129;28;20173;-65
2021/09/07 02:52:03;;;;;;;7.80;7.10;;;;;;;;;;5073607;28;20188;-65
2021/09/07 02:54:29;;;;;;;7.77;7.07;;;;;;;;;;5082750;28;20521;-68
2021/09/07 02:56:55;;;;;;;8.07;7.27;;;;;;;;;;5086950;28;20624;-65
2021/09/07 02:59:23;;;;;;;8.17;7.37;;;;;;;;;;5079391;28;20235;-65
2021/09/07 03:01:49;;;;;;;8.03;7.23;;;;;;;;;;5071611;28;20224;-66
2021/09/07 03:04:16;;;;;;;8.33;7.53;;;;;;;;;;5076295;28;20263;-66
2021/09/07 03:06:42;;;;;;;9.10;7.53;;;;;;;;;;5082446;28;20225;-65
2021/09/07 03:09:08;;;;;;;8.03;7.23;;;;;;;;;;5077256;28;20247;-64
2021/09/07 03:11:34;;;;;;;8.27;7.10;;;;;;;;;;5074848;28;20181;-65
2021/09/07 03:14:00;;;;;;;7.37;6.67;;;;;;;;;;5074302;28;20199;-66
2021/09/07 03:16:26;;;;;;;8.03;7.30;;;;;;;;;;5073194;28;20176;-66
2021/09/07 03:18:52;;;;;;;8.27;7.47;;;;;;;;;;5076541;28;20542;-66
2021/09/07 03:21:18;;;;;;;10.10;8.10;;;;;;;;;;5079239;28;20208;-68
2021/09/07 03:23:44;;;;;;;7.57;6.83;;;;;;;;;;5071370;28;20179;-65
2021/09/07 03:26:12;;;;;;;11.43;7.27;;;;;;;;;;5086300;28;20233;-65
2021/09/07 03:28:38;;;;;;;8.57;6.70;;;;;;;;;;5071899;28;20295;-66
2021/09/07 03:31:04;;;;;;;9.40;7.83;;;;;;;;;;5079132;28;20577;-65
2021/09/07 03:33:30;;;;;;;7.73;6.93;;;;;;;;;;5080859;28;20642;-65
2021/09/07 03:35:56;;;;;;;8.13;7.33;;;;;;;;;;5084757;28;20202;-65
2021/09/07 03:38:22;;;;;;;8.77;7.97;;;;;;;;;;5081144;28;20302;-66
2021/09/07 03:40:48;;;;;;;7.83;7.13;;;;;;;;;;5079238;28;20276;-65
2021/09/07 03:43:14;;;;;;;8.77;7.17;;;;;;;;;;5071658;28;20642;-67
2021/09/07 03:45:41;;;;;;;7.90;7.10;;;;;;;;;;5072050;28;20520;-65
2021/09/07 03:48:07;;;;;;;7.47;6.77;;;;;;;;;;5071350;28;20202;-65
2021/09/07 03:50:33;;;;;;;8.53;7.63;;;;;;;;;;5072950;28;20272;-65
2021/09/07 03:52:59;;;;;;;7.70;7.00;;;;;;;;;;5071761;28;20192;-66
2021/09/07 03:55:25;;;;;;;8.10;7.30;;;;;;;;;;5072549;28;20554;-66
2021/09/07 03:57:51;;;;;;;7.07;6.37;;;;;;;;;;5071570;28;20209;-65
2021/09/07 04:00:17;;;;;;;7.40;6.70;;;;;;;;;;5071288;28;20189;-65
2021/09/07 04:02:43;;;;;;;7.67;6.90;;;;;;;;;;5087683;28;20230;-65
2021/09/07 04:05:10;;;;;;;9.60;8.83;;;;;;;;;;5077787;28;20490;-66
2021/09/07 04:07:37;;;;;;;7.50;6.80;;;;;;;;;;5073834;28;21043;-65
2021/09/07 04:10:03;;;;;;;7.43;6.47;;;;;;;;;;5073695;28;20519;-65
2021/09/07 04:12:29;;;;;;;7.00;6.30;;;;;;;;;;5074962;28;20187;-68
2021/09/07 04:14:55;;;;;;;8.87;7.97;;;;;;;;;;5075549;28;20344;-65
2021/09/07 04:17:21;;;;;;;7.80;7.00;;;;;;;;;;5072993;28;20191;-65
2021/09/07 04:19:47;;;;;;;6.73;6.13;;;;;;;;;;5079274;28;20184;-65
2021/09/07 04:22:14;;;;;;;7.60;6.90;;;;;;;;;;5080195;28;20246;-65
2021/09/07 04:24:40;;;;;;;7.20;6.50;;;;;;;;;;5079244;28;20294;-66
2021/09/07 04:27:06;;;;;;;9.23;8.47;;;;;;;;;;5079013;28;20665;-65
2021/09/07 04:29:32;;;;;;;10.77;9.87;;;;;;;;;;5079043;28;20787;-65
2021/09/07 04:31:58;;;;;;;8.47;6.60;;;;;;;;;;5081488;28;20212;-66
2021/09/07 04:34:24;;;;;;;7.40;6.43;;;;;;;;;;5072644;28;20203;-67
2021/09/07 04:36:50;;;;;;;7.30;6.63;;;;;;;;;;5071469;28;20177;-65
2021/09/07 04:39:16;;;;;;;10.57;9.67;;;;;;;;;;5072656;28;20180;-66
2021/09/07 04:41:42;;;;;;;9.23;8.40;;;;;;;;;;5073707;28;20278;-64
2021/09/07 04:44:09;;;;;;;7.27;6.33;;;;;;;;;;5073480;28;20640;-64
2021/09/07 04:46:35;;;;;;;9.53;8.73;;;;;;;;;;5079999;28;20195;-66
2021/09/07 04:49:01;;;;;;;7.80;7.00;;;;;;;;;;5069130;28;20510;-64
2021/09/07 04:51:27;;;;;;;8.17;7.20;;;;;;;;;;5083536;28;20707;-66
2021/09/07 04:53:53;;;;;;;7.80;7.00;;;;;;;;;;5071590;28;20204;-64
2021/09/07 04:56:19;;;;;;;7.70;6.90;;;;;;;;;;5078111;28;20223;-65
2021/09/07 04:58:45;;;;;;;8.03;7.17;;;;;;;;;;5074768;28;20236;-67
2021/09/07 05:01:12;;;;;;;8.50;7.43;;;;;;;;;;5069551;28;20200;-65
2021/09/07 05:03:38;;;;;;;6.90;6.10;;;;;;;;;;5073898;28;20829;-64
2021/09/07 05:06:07;;;;;;;7.57;6.87;;;;;;;;;;5084363;28;20641;-64
2021/09/07 05:08:33;;;;;;;6.77;6.17;;;;;;;;;;5076031;28;20262;-65
2021/09/07 05:10:59;;;;;;;7.67;6.97;;;;;;;;;;5074339;28;20191;-66
2021/09/07 05:13:25;;;;;;;8.37;7.50;;;;;;;;;;5075073;28;20222;-67
2021/09/07 05:15:51;;;;;;;8.00;7.20;;;;;;;;;;5075941;28;20188;-65
2021/09/07 05:18:17;;;;;;;7.23;6.53;;;;;;;;;;5084162;28;20180;-66
2021/09/07 05:20:43;;;;;;;7.90;7.10;;;;;;;;;;5073116;28;20622;-65
2021/09/07 05:23:09;;;;;;;7.70;6.97;;;;;;;;;;5068490;28;20230;-64
2021/09/07 05:25:35;;;;;;;6.90;6.23;;;;;;;;;;5078535;28;20186;-65
2021/09/07 05:28:01;;;;;;;7.67;6.90;;;;;;;;;;5074232;28;20511;-65
2021/09/07 05:30:27;;;;;;;7.27;6.30;;;;;;;;;;5075911;28;20265;-65
2021/09/07 05:32:53;;;;;;;8.33;7.53;;;;;;;;;;5071624;28;20611;-65
2021/09/07 05:35:19;;;;;;;8.37;7.57;;;;;;;;;;5081693;28;20855;-65
2021/09/07 05:37:45;;;;;;;6.97;6.30;;;;;;;;;;5076114;28;20256;-68
2021/09/07 05:40:13;;;;;;;8.33;7.50;;;;;;;;;;5075286;28;20185;-66
2021/09/07 05:42:42;;;;;;;7.33;6.63;;;;;;;;;;5075945;28;20192;-65
2021/09/07 05:45:09;;;;;;;7.50;6.80;;;;;;;;;;5078043;28;20187;-66
2021/09/07 05:47:35;;;;;;;7.37;6.67;;;;;;;;;;5069603;28;20259;-65
2021/09/07 05:50:01;;;;;;;8.47;7.57;;;;;;;;;;5075035;28;20329;-66
2021/09/07 05:52:27;;;;;;;7.17;6.47;;;;;;;;;;5075689;28;20184;-66
2021/09/07 05:54:53;;;;;;;7.90;7.20;;;;;;;;;;5073614;28;20596;-64
2021/09/07 05:57:20;;;;;;;8.63;7.37;;;;;;;;;;5073207;28;20240;-65
2021/09/07 05:59:46;;;;;;;8.80;7.70;;;;;;;;;;5069695;28;20485;-66
2021/09/07 06:02:12;;;;;;;8.07;7.37;;;;;;;;;;5066717;28;20614;-65
2021/09/07 06:04:38;;;;;;;9.87;6.80;;;;;;;;;;5073025;28;20185;-65
2021/09/07 06:07:10;;;;;;;8.17;7.37;;;;;;;;;;5081128;28;20658;-66
2021/09/07 06:09:36;;;;;;;7.20;6.53;;;;;;;;;;5073239;28;20275;-65
2021/09/07 06:12:02;;;;;;;7.70;6.93;;;;;;;;;;5067974;28;20272;-65
2021/09/07 06:14:28;;;;;;;8.53;7.70;;;;;;;;;;5068383;28;20270;-65
2021/09/07 06:16:56;;;;;;;7.50;6.80;;;;;;;;;;5072962;28;20277;-65
2021/09/07 06:19:22;;;;;;;7.43;6.67;;;;;;;;;;5074951;28;20267;-66
2021/09/07 06:21:48;;;;;;;8.20;7.20;;;;;;;;;;5077771;28;20304;-66
2021/09/07 06:24:14;;;;;;;7.70;6.93;;;;;;;;;;5074607;28;20569;-65
2021/09/07 06:26:40;;;;;;;7.97;7.17;;;;;;;;;;5069647;28;20184;-66
2021/09/07 06:29:06;;;;;;;6.97;6.27;;;;;;;;;;5075190;28;20195;-66
2021/09/07 06:31:32;;;;;;;7.73;6.93;;;;;;;;;;5077967;28;20175;-60
2021/09/07 06:33:58;;;;;;;10.60;9.53;;;;;;;;;;5073224;28;20732;-60
2021/09/07 06:36:24;;;;;;;10.67;9.33;;;;;;;;;;5074428;28;20176;-61
2021/09/07 06:38:53;;;;;;;11.03;9.93;;;;;;;;;;5072161;28;20294;-61
2021/09/07 06:41:19;;;;;;;13.90;10.27;;;;;;;;;;5072964;28;20201;-59
2021/09/07 06:43:45;;;;;;;11.27;9.90;;;;;;;;;;5071203;28;20640;-60
2021/09/07 06:46:11;;;;;;;12.47;10.27;;;;;;;;;;5074302;28;20191;-61
2021/09/07 06:48:37;;;;;;;11.93;10.63;;;;;;;;;;5072068;28;20202;-60
2021/09/07 06:51:04;;;;;;;12.33;10.53;;;;;;;;;;5075024;28;20242;-60
2021/09/07 06:53:30;;;;;;;12.70;10.70;;;;;;;;;;5067398;28;20237;-59
2021/09/07 06:55:57;;;;;;;12.83;11.50;;;;;;;;;;5075449;28;20238;-60
2021/09/07 06:58:23;;;;;;;15.33;11.13;;;;;;;;;;5069352;28;20227;-61
2021/09/07 07:00:49;;;;;;;13.07;10.83;;;;;;;;;;5079925;28;20198;-60
2021/09/07 07:03:15;;;;;;;11.00;9.67;;;;;;;;;;5070278;28;20156;-60
2021/09/07 07:05:41;;;;;;;12.63;10.33;;;;;;;;;;5073873;28;20206;-60
2021/09/07 07:08:07;;;;;;;12.53;10.70;;;;;;;;;;5073121;28;20279;-61
2021/09/07 07:10:36;;;;;;;12.93;10.40;;;;;;;;;;5082820;28;20180;-61
2021/09/07 07:13:02;;;;;;;15.93;11.30;;;;;;;;;;5071029;28;20191;-60
2021/09/07 07:15:28;;;;;;;14.27;10.20;;;;;;;;;;5080128;28;20180;-60
2021/09/07 07:17:54;;;;;;;16.20;11.03;;;;;;;;;;5072660;28;20183;-60
2021/09/07 07:20:20;;;;;;;14.40;10.73;;;;;;;;;;5069579;28;20517;-60
2021/09/07 07:22:46;;;;;;;15.20;11.23;;;;;;;;;;5066068;28;20189;-60
2021/09/07 07:25:12;;;;;;;14.07;11.90;;;;;;;;;;5066426;28;20588;-61
2021/09/07 07:27:41;;;;;;;17.37;12.77;;;;;;;;;;5075927;28;21826;-61
2021/09/07 07:30:08;;;;;;;16.20;12.60;;;;;;;;;;5072063;28;20225;-60
2021/09/07 07:32:34;;;;;;;14.13;10.93;;;;;;;;;;5074038;28;20255;-60
2021/09/07 07:35:00;;;;;;;14.63;12.13;;;;;;;;;;5071745;28;20176;-62
2021/09/07 07:37:26;;;;;;;15.90;11.23;;;;;;;;;;5069054;28;20203;-60
2021/09/07 07:39:52;;;;;;;18.60;12.93;;;;;;;;;;5079448;28;20180;-60
2021/09/07 07:42:18;;;;;;;14.30;11.00;;;;;;;;;;5069356;28;20230;-61
2021/09/07 07:44:45;;;;;;;13.33;11.30;;;;;;;;;;5074031;28;20196;-60
2021/09/07 07:47:11;;;;;;;15.63;11.53;;;;;;;;;;5074101;28;20371;-60
2021/09/07 07:49:38;;;;;;;13.80;11.77;;;;;;;;;;5078607;28;20175;-59
2021/09/07 07:52:04;;;;;;;14.70;11.47;;;;;;;;;;5076511;28;20332;-60
2021/09/07 07:54:30;;;;;;;13.30;11.33;;;;;;;;;;5074008;28;20254;-59
2021/09/07 07:56:56;;;;;;;13.60;10.63;;;;;;;;;;5070790;28;20180;-60
2021/09/07 07:59:22;;;;;;;15.47;12.20;;;;;;;;;;5071472;28;20293;-60
2021/09/07 08:01:49;;;;;;;18.17;12.70;;;;;;;;;;5072921;28;20207;-61
2021/09/07 08:04:15;;;;;;;15.13;11.87;;;;;;;;;;5076341;28;20250;-60
2021/09/07 08:06:41;;;;;;;12.53;11.00;;;;;;;;;;5074541;28;20601;-60
2021/09/07 08:09:10;;;;;;;15.60;12.03;;;;;;;;;;5077377;28;20187;-60
2021/09/07 08:11:37;;;;;;;13.30;11.83;;;;;;;;;;5072966;28;20511;-59
2021/09/07 08:14:03;;;;;;;13.87;11.57;;;;;;;;;;5069010;28;20195;-60
2021/09/07 08:16:29;;;;;;;18.13;11.20;;;;;;;;;;5074912;28;20626;-61
2021/09/07 08:18:55;;;;;;;15.23;12.10;;;;;;;;;;5073762;28;20736;-60
2021/09/07 08:21:21;;;;;;;15.63;11.63;;;;;;;;;;5075763;28;20215;-60
2021/09/07 08:23:47;;;;;;;15.77;11.23;;;;;;;;;;5074610;28;20180;-60
2021/09/07 08:26:13;;;;;;;14.43;10.97;;;;;;;;;;5080263;28;20242;-60
2021/09/07 08:28:39;;;;;;;15.70;12.23;;;;;;;;;;5079808;28;20181;-62
2021/09/07 08:31:05;;;;;;;17.97;11.27;;;;;;;;;;5084858;28;20222;-60
2021/09/07 08:33:32;;;;;;;13.23;11.20;;;;;;;;;;5072909;28;20180;-60
2021/09/07 08:35:58;;;;;;;16.87;12.77;;;;;;;;;;5074993;28;20287;-63
2021/09/07 08:38:24;;;;;;;19.60;12.00;;;;;;;;;;5068677;28;20449;-60
2021/09/07 08:40:53;;;;;;;13.23;11.93;;;;;;;;;;5072952;28;20306;-60
2021/09/07 08:43:22;;;;;;;16.60;13.57;;;;;;;;;;5068130;28;20177;-60
2021/09/07 08:45:52;;;;;;;18.23;11.33;;;;;;;;;;5077390;28;20172;-60
2021/09/07 08:48:21;;;;;;;19.27;11.97;;;;;;;;;;5078399;28;20447;-60
2021/09/07 08:50:47;;;;;;;14.53;10.90;;;;;;;;;;5068989;28;20173;-61
2021/09/07 08:53:13;;;;;;;18.17;11.27;;;;;;;;;;5075284;28;20227;-60
2021/09/07 08:55:40;;;;;;;15.03;10.57;;;;;;;;;;5074661;28;20276;-61
2021/09/07 08:58:06;;;;;;;16.17;11.97;;;;;;;;;;5075057;28;20304;-59
2021/09/07 09:00:35;;;;;;;17.77;11.57;;;;;;;;;;5078871;28;20173;-59
2021/09/07 09:03:12;;;;;;;16.50;12.20;;;;;;;;;;5068329;28;20430;-60
2021/09/07 09:05:41;;;;;;;18.03;11.13;;;;;;;;;;5073579;28;20176;-59
2021/09/07 09:08:11;;;;;;;12.27;11.00;;;;;;;;;;5071254;28;20177;-59
2021/09/07 09:10:37;;;;;;;11.97;10.53;;;;;;;;;;5082291;28;20275;-59
2021/09/07 09:13:05;;;;;;;12.53;10.37;;;;;;;;;;5073028;28;20724;-58
2021/09/07 09:15:32;;;;;;;17.53;11.70;;;;;;;;;;5075938;28;20176;-59
2021/09/07 09:18:11;;;;;;;12.97;10.20;;;;;;;;;;5073713;28;20598;-59
2021/09/07 09:20:39;;;;;;;11.47;10.17;;;;;;;;;;5076496;28;20192;-60
2021/09/07 09:23:06;;;;;;;11.93;9.53;;;;;;;;;;5075730;28;20208;-59
2021/09/07 09:25:33;;;;;;;11.20;10.00;;;;;;;;;;5072977;28;20525;-59
2021/09/07 09:27:59;;;;;;;11.70;10.27;;;;;;;;;;5068541;28;20262;-60
2021/09/07 09:30:30;;;;;;;11.90;9.73;;;;;;;;;;5074601;28;20187;-59
2021/09/07 09:32:59;;;;;;;15.27;9.97;;;;;;;;;;5068380;28;20195;-60
2021/09/07 09:35:25;;;;;;;11.50;10.30;;;;;;;;;;5068327;28;20185;-59
2021/09/07 09:37:58;;;;;;;13.00;9.20;;;;;;;;;;5073592;28;20621;-60
2021/09/07 09:40:24;;;;;;;16.53;10.90;;;;;;;;;;5080629;28;20240;-60
2021/09/07 09:42:50;;;;;;;10.30;9.00;;;;;;;;;;5073799;28;20710;-59
2021/09/07 09:45:17;;;;;;;9.40;8.43;;;;;;;;;;5078308;28;20176;-61
2021/09/07 09:47:45;;;;;;;12.57;8.63;;;;;;;;;;5075671;28;20488;-62
2021/09/07 09:50:12;;;;;;;11.80;8.63;;;;;;;;;;5074760;28;20550;-61
2021/09/07 09:52:40;;;;;;;8.73;7.90;;;;;;;;;;5068640;28;20397;-61
2021/09/07 09:55:07;;;;;;;9.70;8.73;;;;;;;;;;5067070;28;20239;-61
2021/09/07 09:57:35;;;;;;;8.93;8.03;;;;;;;;;;5073399;28;20185;-61
2021/09/07 10:00:03;;;;;;;8.97;8.07;;;;;;;;;;5070725;28;20214;-61
2021/09/07 10:02:32;;;;;;;8.97;8.07;;;;;;;;;;5068085;28;20570;-62
2021/09/07 10:04:59;;;;;;;8.87;7.97;;;;;;;;;;5070156;28;20185;-62
2021/09/07 10:07:26;;;;;;;9.13;8.17;;;;;;;;;;5067369;28;20198;-61
2021/09/07 10:09:53;;;;;;;9.07;7.37;;;;;;;;;;5076363;28;20186;-61
2021/09/07 10:12:24;;;;;;;9.43;8.53;;;;;;;;;;5068695;28;20624;-63
2021/09/07 10:14:57;;;;;;;9.07;8.03;;;;;;;;;;5074638;28;20182;-61
2021/09/07 10:20:35;;;;;;;8.57;7.23;;;;;;;;;;5079952;28;20269;-63
2021/09/07 10:25:50;;;;;;;11.10;7.53;;;;;;;;;;5071698;28;20265;-61
2021/09/07 10:28:28;;;;;;;9.40;7.57;;;;;;;;;;5072172;28;20477;-61
2021/09/07 10:31:01;;;;;;;9.40;7.47;;;;;;;;;;5076095;28;20185;-61
2021/09/07 10:33:28;;;;;;;8.80;7.87;;;;;;;;;;5066165;28;20607;-62
2021/09/07 10:36:04;;;;;;;9.17;8.13;;;;;;;;;;5077669;28;20240;-63
2021/09/07 10:38:36;;;;;;;10.70;7.83;;;;;;;;;;5067983;28;20200;-62
2021/09/07 10:41:02;;;;;;;9.67;7.73;;;;;;;;;;5072492;28;20607;-61
2021/09/07 10:43:51;;;;;;;8.77;7.37;;;;;;;;;;5075133;28;20260;-62
2021/09/07 10:46:37;;;;;;;8.53;7.63;;;;;;;;;;5078594;28;20177;-61
2021/09/07 10:49:13;;;;;;;12.20;8.40;;;;;;;;;;5068033;28;20521;-62
2021/09/07 10:51:58;;;;;;;8.03;7.23;;;;;;;;;;5066904;28;20213;-62
2021/09/07 10:54:25;;;;;;;8.90;8.00;;;;;;;;;;5070029;28;20210;-62
2021/09/07 10:56:56;;;;;;;9.37;7.47;;;;;;;;;;5070937;28;20763;-61
2021/09/07 10:59:40;;;;;;;8.67;7.77;;;;;;;;;;5072330;28;20233;-61
2021/09/07 11:02:25;;;;;;;9.20;8.10;;;;;;;;;;5070631;28;20243;-61
2021/09/07 11:04:54;;;;;;;9.50;7.93;;;;;;;;;;5072484;28;20186;-61
2021/09/07 11:07:37;;;;;;;8.73;7.73;;;;;;;;;;5070421;28;20545;-61
2021/09/07 11:10:04;;;;;;;11.73;7.97;;;;;;;;;;5071497;28;20301;-61
2021/09/07 11:12:31;;;;;;;8.50;7.67;;;;;;;;;;5071882;28;20191;-62
2021/09/07 11:15:01;;;;;;;8.60;7.60;;;;;;;;;;5078786;28;20211;-63
2021/09/07 11:17:27;;;;;;;10.90;8.33;;;;;;;;;;5071474;28;20256;-62
2021/09/07 11:20:04;;;;;;;9.10;8.20;;;;;;;;;;5076382;28;20172;-61
2021/09/07 11:22:30;;;;;;;8.63;7.83;;;;;;;;;;5071078;28;20237;-63
2021/09/07 11:25:07;;;;;;;8.37;7.53;;;;;;;;;;5075638;28;20189;-63
2021/09/07 11:27:48;;;;;;;10.17;7.77;;;;;;;;;;5071294;28;20198;-62
2021/09/07 11:30:25;;;;;;;8.33;7.43;;;;;;;;;;5074894;28;20176;-63
2021/09/07 11:32:55;;;;;;;8.30;7.50;;;;;;;;;;5071625;28;20172;-62
2021/09/07 11:35:24;;;;;;;10.70;8.30;;;;;;;;;;5083102;28;20662;-62
2021/09/07 11:37:51;;;;;;;7.83;7.13;;;;;;;;;;5071107;28;20630;-63
2021/09/07 11:40:17;;;;;;;8.57;7.67;;;;;;;;;;5073706;28;20187;-63
2021/09/07 11:42:44;;;;;;;7.77;6.93;;;;;;;;;;5069766;28;20287;-63
2021/09/07 11:45:17;;;;;;;8.20;7.40;;;;;;;;;;5075523;28;20215;-62
2021/09/07 11:47:44;;;;;;;8.83;7.80;;;;;;;;;;5076855;28;20206;-62
2021/09/07 11:50:15;;;;;;;8.27;7.40;;;;;;;;;;5082148;28;20283;-61
2021/09/07 11:52:41;;;;;;;8.53;7.73;;;;;;;;;;5076065;28;20176;-62
2021/09/07 11:55:30;;;;;;;9.03;7.80;;;;;;;;;;5079215;28;20295;-61
2021/09/07 11:57:56;;;;;;;11.27;9.05;;;;;;;;;;5069757;28;20556;-64
2021/09/07 12:00:22;;;;;;;8.43;7.63;;;;;;;;;;5076748;28;20178;-61
2021/09/07 12:02:48;;;;;;;10.50;8.20;;;;;;;;;;5076467;28;20291;-62
2021/09/07 12:05:14;;;;;;;9.20;8.30;;;;;;;;;;5073683;28;20635;-61
2021/09/07 12:07:56;;;;;;;8.07;7.27;;;;;;;;;;5076241;28;20180;-61
2021/09/07 12:10:22;;;;;;;7.87;7.13;;;;;;;;;;5086149;28;20261;-61
2021/09/07 12:12:49;;;;;;;9.67;7.60;;;;;;;;;;5069189;28;20205;-60
2021/09/07 12:15:16;;;;;;;8.47;7.67;;;;;;;;;;5074459;28;20271;-63
2021/09/07 12:17:45;;;;;;;8.30;7.03;;;;;;;;;;5070140;28;20276;-62
2021/09/07 12:20:14;;;;;;;13.27;9.30;;;;;;;;;;5068629;28;20176;-62
2021/09/07 12:22:41;;;;;;;7.20;6.47;;;;;;;;;;5080789;28;20205;-62
2021/09/07 12:25:08;;;;;;;8.53;7.70;;;;;;;;;;5071071;28;20678;-62
2021/09/07 12:27:42;;;;;;;7.50;6.80;;;;;;;;;;5069174;28;20180;-61
2021/09/07 12:30:08;;;;;;;7.03;6.33;;;;;;;;;;5077226;28;20171;-62
2021/09/07 12:32:46;;;;;;;11.03;7.10;;;;;;;;;;5074865;28;20184;-61
2021/09/07 12:35:12;;;;;;;7.77;6.50;;;;;;;;;;5076066;28;20191;-62
2021/09/07 12:37:38;;;;;;;7.93;7.17;;;;;;;;;;5076268;28;20292;-62
2021/09/07 12:40:04;;;;;;;9.23;6.60;;;;;;;;;;5077091;28;20181;-62
2021/09/07 12:42:30;;;;;;;7.80;6.90;;;;;;;;;;5073348;28;20189;-62
2021/09/07 12:44:56;;;;;;;7.57;6.87;;;;;;;;;;5072282;28;20722;-65
2021/09/07 12:47:22;;;;;;;7.40;6.70;;;;;;;;;;5068542;28;20265;-63
2021/09/07 12:49:48;;;;;;;9.20;7.10;;;;;;;;;;5080674;28;20175;-62
2021/09/07 12:52:14;;;;;;;7.53;6.83;;;;;;;;;;5075893;28;20258;-62
2021/09/07 12:54:41;;;;;;;8.00;7.17;;;;;;;;;;5079596;28;20709;-64
2021/09/07 12:57:07;;;;;;;7.70;7.00;;;;;;;;;;5078701;28;20608;-65
2021/09/07 12:59:33;;;;;;;7.83;6.83;;;;;;;;;;5071868;28;20252;-62
2021/09/07 13:01:59;;;;;;;8.93;6.87;;;;;;;;;;5070760;28;20216;-62
2021/09/07 13:04:25;;;;;;;8.93;7.43;;;;;;;;;;5080722;28;20188;-62
2021/09/07 13:06:51;;;;;;;8.13;7.33;;;;;;;;;;5077764;28;20515;-64
2021/09/07 13:09:17;;;;;;;8.83;7.70;;;;;;;;;;5068690;28;20182;-64
2021/09/07 13:11:43;;;;;;;7.87;7.07;;;;;;;;;;5078792;28;20192;-62
2021/09/07 13:14:09;;;;;;;8.63;7.30;;;;;;;;;;5075443;28;20177;-61
2021/09/07 13:16:35;;;;;;;7.90;7.00;;;;;;;;;;5083483;28;20212;-61
2021/09/07 13:19:01;;;;;;;8.80;7.97;;;;;;;;;;5074528;28;20294;-62
2021/09/07 13:21:29;;;;;;;8.73;7.93;;;;;;;;;;5068402;28;20799;-63
2021/09/07 13:23:55;;;;;;;7.43;6.73;;;;;;;;;;5068469;28;20280;-62
2021/09/07 13:26:22;;;;;;;8.37;7.20;;;;;;;;;;5073936;28;20173;-63
2021/09/07 13:28:48;;;;;;;8.90;6.87;;;;;;;;;;5068262;28;20180;-61
2021/09/07 13:31:14;;;;;;;8.57;7.77;;;;;;;;;;5078966;28;20178;-61
2021/09/07 13:33:40;;;;;;;9.10;7.20;;;;;;;;;;5081785;28;20180;-62
2021/09/07 13:36:06;;;;;;;7.83;7.03;;;;;;;;;;5070608;28;20209;-61
2021/09/07 13:38:32;;;;;;;7.80;7.00;;;;;;;;;;5076038;28;20267;-62
2021/09/07 13:40:58;;;;;;;8.07;6.97;;;;;;;;;;5072721;28;20272;-62
2021/09/07 13:43:25;;;;;;;7.43;6.73;;;;;;;;;;5073072;28;20603;-63
2021/09/07 13:45:51;;;;;;;8.53;7.27;;;;;;;;;;5079031;28;20615;-62
2021/09/07 13:48:17;;;;;;;8.17;7.37;;;;;;;;;;5079469;28;20187;-64
2021/09/07 13:50:43;;;;;;;8.37;7.03;;;;;;;;;;5082035;28;20267;-64
2021/09/07 13:53:10;;;;;;;7.77;7.07;;;;;;;;;;5075516;28;20571;-64
2021/09/07 13:55:36;;;;;;;9.48;8.25;;;;;;;;;;5069542;28;20418;-61
2021/09/07 13:58:02;;;;;;;9.03;7.67;;;;;;;;;;5073615;28;20261;-62
2021/09/07 14:00:28;;;;;;;7.13;6.33;;;;;;;;;;5077366;28;20761;-62
2021/09/07 14:02:54;;;;;;;12.07;6.97;;;;;;;;;;5068297;28;20239;-62
2021/09/07 14:05:22;;;;;;;8.27;6.60;;;;;;;;;;5073324;28;20298;-64
2021/09/07 14:07:48;;;;;;;8.10;7.00;;;;;;;;;;5069889;28;20178;-64
2021/09/07 14:10:15;;;;;;;7.50;6.80;;;;;;;;;;5072627;28;20277;-62
2021/09/07 14:12:41;;;;;;;7.83;6.87;;;;;;;;;;5068677;28;20603;-63
2021/09/07 14:15:08;;;;;;;9.20;6.73;;;;;;;;;;5080644;28;20187;-64
2021/09/07 14:17:34;;;;;;;7.00;6.40;;;;;;;;;;5078052;28;20187;-63
2021/09/07 14:20:00;;;;;;;8.67;6.93;;;;;;;;;;5072120;28;20185;-64
2021/09/07 14:22:26;;;;;;;7.03;6.40;;;;;;;;;;5076738;28;20206;-63
2021/09/07 14:24:52;;;;;;;9.80;7.17;;;;;;;;;;5071560;28;20191;-63
2021/09/07 14:27:18;;;;;;;8.27;6.80;;;;;;;;;;5068646;28;20311;-63
2021/09/07 14:29:44;;;;;;;8.23;7.47;;;;;;;;;;5074103;28;20192;-63
2021/09/07 14:32:12;;;;;;;7.20;6.50;;;;;;;;;;5072673;28;20263;-63
2021/09/07 14:34:38;;;;;;;7.73;6.93;;;;;;;;;;5075471;28;20340;-63
2021/09/07 14:37:04;;;;;;;7.37;6.67;;;;;;;;;;5070563;28;20182;-63
2021/09/07 14:39:31;;;;;;;7.97;7.23;;;;;;;;;;5069800;28;20188;-63
2021/09/07 14:41:57;;;;;;;7.67;6.97;;;;;;;;;;5070921;28;20206;-63